Pagrindinis puslapis
METAR-TAF:

METAR-TAF

Oro uostai :

Kristianstadas, Švedija

platuma: 55-55N, ilguma: 014-05E, Aukštis: 23 m

Dabartinis oras

Ataskaita buvo paskelbta 22 minutes, ne 19:50 UTC
Vėjas 17 kt iš Vakarų
Temperatūra 14°C
Drėgmė 77%
Slėgis 1004 hPa
Matomumas 10 km arba daugiau

METAR: ESMK 061950Z AUTO 27017KT 9999 OVC047/// 14/10 Q1004

Laikas: 22:12 (20:12 UTC)

Prognozė

Ataskaita buvo paskelbta 9 valandos ir 10 minutes, ne 11:02 UTC
Prognozė galioja nuo 06 metu 12 UTC su 06 metu 15 UTC
Vėjas 15 kt iš Vakarų/Pietvakarių
Matomumas 10 km arba daugiau
Išsisklaidę debesys ne aukštis 3000 ft
Laikinai
nuo 06 metu 12 UTC su 06 metu 15 UTC
Vėjas 18 kt iš Vakarų su gūsio iki 28 kt
Matomumas: 4000 m
Išsisklaidę debesys ne aukštis 1200 ft
Išsisklaidę debesys ne aukštis 2000 ft, Liūtiniai kamuoliniai debesys.
lietus
Tikimybė 40% :
Laikinai
nuo 06 metu 12 UTC su 06 metu 15 UTC
perkūnija, lietus

TAF: ESMK 061102Z 0612/0615 25015KT 9999 SCT030 TEMPO 0612/0615 26018G28KT 4000 SHRA SCT012 SCT020CB PROB40 TEMPO 0612/0615 TSRA

Orai ataskaitas ir orų prognozės (METAR, TAF).

turimą stotys yra geltonos ir raudonos taškus žemėlapyje.

Perkelti pele per norėdami pamatyti stoties vardą.

Tada spustelėkite, norėdami matyti oro stebėjimo ir prognozės.

Norėdami pakeisti žemėlapį: spustelėkite ant žalios mygtukų su juodo kryžiaus žemyn,; žalią mygtuką su brūkšneliu, jei norite nutolinti; arba žalių rodyklių gretimoms žemėlapius.


METAR-TAF: